Tiempo atmosférico en la estación meteorológica de Berga, Barcelona (690 m.)

Fecha
DESCASC
Temp. máxima en grados centígrados (hora)
DESCASC
Temp. mínima en grados centígrados (hora)
DESCASC
Temp. media en grados centígrados
DESCASC
Racha de viento máxima en m/sg (hora)
DESCASC
Velocidad máxima media en intervalos de 10 minutos(hora)
DESCASC
Precipitaciones diarias en mm
DESCASC
Precipitaciones de 00:00 a 06:00 en mm
DESCASC
Precipitaciones de 06:00 a 12:00 en mm
DESCASC
Precipitaciones de 12:00 a 18:00 en mm
DESCASC
Precipitaciones de 18:00 a 24:00 en mm
DESCASC
17-09-2017 19.1 (16:50) 5.5 (08:00) 12.3 12.5 (15:10) 8.33 (14:00) 0 0 0 0 0
16-09-2017 16.8 (16:00) 5.8 (07:40) 11.3 16.11 (20:30) 8.89 (20:30) 5.2 0 0 0 5.2
15-09-2017 16.4 (00:50) 9.2 (23:30) 12.8 6.67 (00:20) 4.17 (00:30) 45.8 13.6 15.4 16.8 0
14-09-2017 27.2 (15:50) 12.4 (00:00) 19.8 12.22 (16:30) 7.78 (16:30) 0 0 0 0 0
13-09-2017 27.2 (16:50) 12.4 (00:00) 19.8 11.39 (17:30) 7.22 (17:30) 0 0 0 0 0
12-09-2017 22.4 (17:30) 12 (00:00) 17.2 9.17 (17:10) 5.83 (17:40) 0 0 0 0 0
11-09-2017 27.2 (15:40) 9.9 (00:00) 18.6 12.22 (17:20) 8.33 (17:20) 0 0 0 0 0
10-09-2017 22.1 (15:50) 7.3 (00:00) 14.7 13.06 (18:30) 5.56 (18:30) 0.2 0 0.2 0 0
09-09-2017 17 (11:20) 11.1 (00:00) 14.1 9.17 (15:20) 4.17 (15:20) 7 0 0 4 3
08-09-2017 24.3 (16:30) 12 (00:00) 18.1 9.72 (17:40) 6.39 (17:30) 0 0 0 0 0
07-09-2017 24.2 (16:40) 13.5 (00:00) 18.9 7.5 (16:50) 5 (17:30) 0 0 0 0 0
06-09-2017 27.5 (16:30) 17.3 (00:00) 22.4 10.83 (19:40) 6.94 (17:00) 7.8 0 0 0 7.8
05-09-2017 29.9 (16:10) 14.8 (00:00) 22.3 9.44 (15:20) 5 (15:30) 0 0 0 0 0
04-09-2017 26.3 (13:40) 16.3 (00:00) 21.3 10.83 (15:50) 7.22 (16:00) 0 0 0 0 0
03-09-2017 25.8 (16:40) 12.3 (00:00) 19 10 (19:20) 6.11 (19:50) 0 0 0 0 0
02-09-2017 25.1 (17:10) 10.3 (00:00) 17.7 10.28 (16:00) 5.28 (17:20) 0 0 0 0 0
01-09-2017 23.6 (16:50) 14 (00:00) 18.8 12.22 (17:50) 7.22 (15:00) 1.8 0 1.8 0 0
31-08-2017 22.6 (14:50) 15.7 (00:00) 19.2 8.89 (14:40) 5.28 (15:20) 14.6 0 1.8 0.8 12
30-08-2017 26.5 (16:50) 16.5 (00:00) 21.5 11.39 (15:40) 8.06 (15:40) 2.4 0.6 1.8 0 0
29-08-2017 30.3 (13:00) 17.1 (00:00) 23.7 11.39 (15:30) 7.5 (13:30) 0 0 0 0 0
28-08-2017 35.1 (17:10) 18.4 (00:00) 26.7 11.39 (17:40) 6.67 (17:20) 0 0 0 0 0
27-08-2017 33.9 (16:00) 19.9 (00:00) 26.9 9.44 (18:40) 5.28 (18:40) 0 0 0 0 0
26-08-2017 33.4 (15:10) 18.2 (00:00) 25.8 7.78 (17:20) 4.44 (14:10) 0 0 0 0 0
25-08-2017 32.4 (17:10) 17 (00:00) 24.7 8.61 (18:00) 4.72 (18:00) 0 0 0 0 0
24-08-2017 32.6 (16:30) 19.4 (00:00) 26 10.56 (06:00) 6.39 (14:40) 0.8 0.4 0.4 0 0
23-08-2017 32.7 (16:20) 18.6 (00:00) 25.7 9.72 (18:00) 5.28 (18:30) 0 0 0 0 0
22-08-2017 34 (14:50) 18.2 (00:00) 26.1 9.72 (14:30) 5.83 (14:30) 0 0 0 0 0

Gráficas

Temp. máximas Temp. mínimas Temp. medias Precipitaciones Rachas de viento máximas Velocidades máximas media en intervalos de 10 minutos

Datos horarios

Fecha y hora oficial Temperatura (ºC) Velocidad del viento (km/h) Dirección del viento Racha (km/h) Dirección de racha Precipitación (mm) Presión (hPa) Tendencia (hPa) Humedad (%)
2017-09-20 23:00:00 13.9 4 Nordeste 6 Noroeste 0 -- -- 74
2017-09-20 22:00:00 15.1 0 Calma 9 Sudoeste 0 -- -- 72
2017-09-20 21:00:00 16.3 5 Sur 13 Oeste 0 -- -- 68
2017-09-20 20:00:00 18.1 9 Sudoeste 23 Oeste 0 -- -- 59
2017-09-20 19:00:00 20.5 17 Oeste 38 Sudoeste 0 -- -- 36
2017-09-20 18:00:00 21.4 21 Sudoeste 32 Sudoeste 0 -- -- 32
2017-09-20 17:00:00 21.9 12 Sudoeste 23 Sudoeste 0 -- -- 45
2017-09-20 16:00:00 21.6 10 Sudoeste 22 Sudoeste 0 -- -- 48
2017-09-20 15:00:00 20.6 9 Sudoeste 24 Oeste 0 -- -- 47
2017-09-20 14:00:00 19.8 9 Sudoeste 23 Sudoeste 0 -- -- 52
2017-09-20 13:00:00 18.9 7 Sur 22 Sudoeste 0 -- -- 53
2017-09-20 12:00:00 17.8 10 Sudoeste 17 Sudoeste 0 -- -- 51
2017-09-20 11:00:00 16.2 4 Este 10 Este 0 -- -- 50
2017-09-20 10:00:00 12.8 5 Este 14 Este 0 -- -- 50
2017-09-20 09:00:00 9.5 9 Este 17 Este 0 -- -- 55
2017-09-20 08:00:00 7.5 10 Este 18 Este 0 -- -- 60
2017-09-20 07:00:00 7.6 9 Este 17 Este 0 -- -- 60
2017-09-20 06:00:00 7.6 10 Este 15 Este 0 -- -- 63
2017-09-20 05:00:00 7.7 9 Este 14 Este 0 -- -- 65
2017-09-20 04:00:00 8.3 8 Este 12 Este 0 -- -- 65
2017-09-20 03:00:00 9.1 10 Este 14 Este 0 -- -- 61
2017-09-20 02:00:00 11.3 0 Calma 13 Nordeste 0 -- -- 47
2017-09-20 01:00:00 12.8 8 Nordeste 25 Nordeste 0 -- -- 40
2017-09-20 00:00:00 11.6 12 Nordeste 20 Nordeste 0 -- -- 46
2017-09-19 23:00:00 13 8 Este 15 Este 0 -- -- 53
2017-09-19 22:00:00 14.3 4 Este 6 Este 0 -- -- 63
2017-09-19 21:00:00 15.3 2 Este 13 Este 0 -- -- 59
2017-09-19 20:00:00 17.3 5 Nordeste 11 Sudoeste 0 -- -- 45
2017-09-19 19:00:00 19.7 5 Sur 18 Sudoeste 0 -- -- 39
2017-09-19 18:00:00 20 10 Sudoeste 19 Sudoeste 0 -- -- 40
2017-09-19 17:00:00 19.3 10 Sudoeste 22 Sudoeste 0 -- -- 42
2017-09-19 16:00:00 18.7 12 Sudoeste 28 Sudoeste 0 -- -- 43
2017-09-19 15:00:00 20.2 19 Sudoeste 29 Sudoeste 0 -- -- 42
2017-09-19 14:00:00 19.2 9 Sur 21 Sudoeste 0 -- -- 46
2017-09-19 13:00:00 17.5 10 Oeste 18 Sudoeste 0 -- -- 57
2017-09-19 12:00:00 15.9 10 Sudoeste 17 Oeste 0 -- -- 63
2017-09-19 11:00:00 14.6 8 Oeste 13 Oeste 0 -- -- 69
2017-09-19 10:00:00 13.1 4 Sudoeste 11 Este 0 -- -- 61
2017-09-19 09:00:00 9.2 7 Este 15 Este 0 -- -- 66
2017-09-19 08:00:00 7.6 8 Este 19 Este 0 -- -- 72
2017-09-19 07:00:00 8.6 7 Nordeste 15 Nordeste 0 -- -- 67
2017-09-19 06:00:00 9 8 Este 15 Nordeste 0 -- -- 69
2017-09-19 05:00:00 9.8 7 Nordeste 15 Nordeste 0 -- -- 74
2017-09-19 04:00:00 11.3 4 Este 12 Este 0 -- -- 75
2017-09-19 03:00:00 11.7 5 Este 10 Este 0 -- -- 82
2017-09-19 02:00:00 12.6 4 Este 9 Este 0 -- -- 81
2017-09-19 01:00:00 13.5 0 Calma 6 Este 0 -- -- 80
2017-09-19 00:00:00 13.5 2 Nordeste 6 Este 0 -- -- 80
2017-09-18 23:00:00 14.1 4 Sudoeste 12 Nordeste 0 -- -- 78
2017-09-18 22:00:00 14.5 5 Este 15 Nordeste 0 -- -- 74
2017-09-18 21:00:00 15.7 6 Este 24 Sudoeste 0 -- -- 61
2017-09-18 20:00:00 17 9 Oeste 24 Oeste 0 -- -- 55
2017-09-18 19:00:00 18.8 18 Oeste 31 Oeste 0 -- -- 48
2017-09-18 18:00:00 20.5 24 Oeste 35 Oeste 0 -- -- 44
2017-09-18 17:00:00 20.9 25 Oeste 38 Sudoeste 0 -- -- 46
2017-09-18 16:00:00 19.7 17 Sudoeste 27 Sudoeste 0 -- -- 48
2017-09-18 15:00:00 19.4 11 Sudoeste 26 Sur 0 -- -- 48
2017-09-18 14:00:00 18.3 8 Sur 18 Sur 0 -- -- 60
2017-09-18 13:00:00 16.5 7 Sur 13 Sur 0 -- -- 71
2017-09-18 12:00:00 13.8 3 Sudoeste 10 Sudoeste 0.4 -- -- 82
2017-09-18 11:00:00 14.3 7 Sudoeste 12 Sudoeste 0 -- -- 72
2017-09-18 10:00:00 13.3 4 Este 14 Este 0 -- -- 68
2017-09-18 09:00:00 10.8 6 Este 14 Este 0 -- -- 75
2017-09-18 08:00:00 10.1 6 Este 13 Este 0 -- -- 78
2017-09-18 07:00:00 9.9 7 Este 14 Este 0 -- -- 78
2017-09-18 06:00:00 9.7 7 Este 13 Este 0 -- -- 80
2017-09-18 05:00:00 10 8 Este 15 Este 0 -- -- 78
2017-09-18 04:00:00 10.2 7 Este 14 Este 0 -- -- 80
2017-09-18 03:00:00 11.3 3 Nordeste 13 Sudeste 0 -- -- 75
2017-09-18 02:00:00 11.6 7 Este 10 Este 0 -- -- 74
2017-09-18 01:00:00 12.4 6 Este 15 Este 0 -- -- 70
2017-09-18 00:00:00 12.7 9 Nordeste 15 Nordeste 0 -- -- 67
2017-09-17 23:00:00 13.5 3 Nordeste 6 Este 0 -- -- 62
2017-09-17 22:00:00 14.3 0 Calma 13 Sur 0 -- -- 59
2017-09-17 21:00:00 15.2 6 Oeste 22 Oeste 0 -- -- 54
2017-09-17 20:00:00 15.9 18 Oeste 27 Oeste 0 -- -- 51
2017-09-17 19:00:00 17.6 19 Sudoeste 31 Sudoeste 0 -- -- 47
2017-09-17 18:00:00 18.8 19 Sudoeste 37 Sur 0 -- -- 45
2017-09-17 17:00:00 18.9 22 Sudoeste 40 Sudoeste 0 -- -- 46
2017-09-17 16:00:00 18.7 25 Sudoeste 45 Oeste 0 -- -- 47
2017-09-17 15:00:00 18.8 24 Oeste 39 Oeste 0 -- -- 45
2017-09-17 14:00:00 17.7 30 Sudoeste 44 Sudoeste 0 -- -- 46
2017-09-17 13:00:00 17.1 25 Sudoeste 35 Sudoeste 0 -- -- 49
2017-09-17 12:00:00 15.5 6 Sudoeste 14 Oeste 0 -- -- 61
2017-09-17 11:00:00 12.9 3 Sudoeste 10 Oeste 0 -- -- 70
2017-09-17 10:00:00 10 3 Nordeste 10 Este 0 -- -- 79
2017-09-17 09:00:00 6.9 4 Este 10 Este 0 -- -- 93
2017-09-17 08:00:00 5.5 4 Este 10 Este 0 -- -- 93
2017-09-17 07:00:00 5.9 3 Oeste 13 Este 0 -- -- 91
2017-09-17 06:00:00 6.1 5 Este 13 Este 0 -- -- 92
2017-09-17 05:00:00 6.2 5 Este 12 Nordeste 0 -- -- 92
2017-09-17 04:00:00 6.4 6 Este 12 Este 0 -- -- 90
2017-09-17 03:00:00 6.9 8 Este 15 Este 0 -- -- 90
2017-09-17 02:00:00 7.4 8 Nordeste 16 Este 0 -- -- 89
2017-09-17 01:00:00 7.7 8 Nordeste 14 Nordeste 0 -- -- 89
2017-09-17 00:00:00 8 7 Nordeste 16 Nordeste 0 -- -- 88
2017-09-16 23:00:00 8.7 6 Este 23 Nordeste 0 -- -- 85
2017-09-16 22:00:00 9.4 13 Nordeste 26 Nordeste 0 -- -- 78
2017-09-16 21:00:00 9.3 11 Nordeste 58 Noroeste 5.2 -- -- 80
2017-09-16 20:00:00 13.3 7 Sur 33 Sudoeste 0 -- -- 66
2017-09-16 19:00:00 14.8 23 Oeste 37 Sudoeste 0 -- -- 60
2017-09-16 18:00:00 15.6 21 Sudoeste 36 Sudoeste 0 -- -- 61
2017-09-16 17:00:00 16.4 18 Sudoeste 31 Sudoeste 0 -- -- 62
2017-09-16 16:00:00 16.8 14 Sudoeste 30 Sudoeste 0 -- -- 63
2017-09-16 15:00:00 15.9 16 Sudoeste 24 Oeste 0 -- -- 66
2017-09-16 14:00:00 15.2 8 Sudoeste 20 Sudoeste 0 -- -- 68
2017-09-16 13:00:00 14 9 Sudoeste 21 Sudoeste 0 -- -- 71
2017-09-16 12:00:00 13.3 6 Sur 16 Sur 0 -- -- 74
2017-09-16 11:00:00 11.8 4 Sudoeste 10 Sudoeste 0 -- -- 82
2017-09-16 10:00:00 10.4 4 Sudoeste 10 Este 0 -- -- 86
2017-09-16 09:00:00 7.4 7 Este 15 Este 0 -- -- 92
2017-09-16 08:00:00 5.8 6 Este 13 Este 0 -- -- 94
2017-09-16 07:00:00 6 5 Este 12 Este 0 -- -- 94
2017-09-16 06:00:00 6.2 6 Este 12 Este 0 -- -- 94
2017-09-16 05:00:00 6.6 6 Este 11 Este 0 -- -- 93
2017-09-16 04:00:00 6.8 4 Este 9 Este 0 -- -- 93
2017-09-16 03:00:00 7.1 5 Este 11 Este 0 -- -- 94
2017-09-16 02:00:00 8 6 Este 10 Este 0 -- -- 94
2017-09-16 01:00:00 8.3 5 Este 9 Este 0 -- -- 95
2017-09-16 00:00:00 9.2 3 Este 7 Este 0 -- -- 96
2017-09-15 23:00:00 9.3 3 Sudoeste 8 Sudoeste 0 -- -- 95
2017-09-15 22:00:00 9.4 0 Calma 6 Este 0 -- -- 93
2017-09-15 21:00:00 9.9 2 Este 8 Nordeste 0 -- -- 94
2017-09-15 20:00:00 10.3 3 Este 9 Sudoeste 0 -- -- 94
2017-09-15 19:00:00 10.7 6 Sudoeste 9 Sudoeste 0 -- -- 92
2017-09-15 18:00:00 10.2 4 Sudoeste 10 Este 0 -- -- 92
2017-09-15 17:00:00 9.8 4 Nordeste 11 Este 5.6 -- -- 91
2017-09-15 16:00:00 10.6 7 Nordeste 24 Este 3.2 -- -- 86
2017-09-15 15:00:00 11.2 6 Sudoeste 9 Sudoeste 3.2 -- -- 94
2017-09-15 14:00:00 11.1 6 Sudoeste 10 Sudoeste 2.4 -- -- 95
2017-09-15 13:00:00 11 5 Sudoeste 10 Sudoeste 2.4 -- -- 95
2017-09-15 12:00:00 10.9 3 Sudeste 8 Oeste 1.6 -- -- 96
2017-09-15 11:00:00 10.3 3 Sudeste 9 Oeste 2.8 -- -- 96
2017-09-15 10:00:00 10 7 Sudoeste 14 Sudoeste 4.4 -- -- 95
2017-09-15 09:00:00 10.8 6 Sudeste 12 Sudoeste 2 -- -- 95
2017-09-15 08:00:00 10.7 3 Sudoeste 6 Este 2.8 -- -- 95
2017-09-15 07:00:00 10.7 4 Sudoeste 8 Sudoeste 1.8 -- -- 95
2017-09-15 06:00:00 10.7 5 Sur 8 Sur 3.2 -- -- 94
2017-09-15 05:00:00 10.9 3 Sudeste 12 Sudeste 3.8 -- -- 94
2017-09-15 04:00:00 11.2 4 Sur 11 Sudeste 4 -- -- 93
2017-09-15 03:00:00 12.2 7 Este 14 Sur 1.6 -- -- 87
2017-09-15 02:00:00 14.3 4 Sudeste 18 Sur 1 -- -- 76
2017-09-15 01:00:00 16.3 12 Sudoeste 24 Oeste 0 -- -- 59
2017-09-15 00:00:00 16.2 13 Sudoeste 22 Sudoeste 0 -- -- 86
2017-09-14 23:00:00 16.5 17 Sudoeste 28 Oeste 0 -- -- 87
2017-09-14 22:00:00 17.3 12 Sudoeste 22 Sudoeste 0 -- -- 83
2017-09-14 21:00:00 18.2 9 Sudoeste 24 Sudoeste 0 -- -- 80
2017-09-14 20:00:00 19.6 13 Sudoeste 24 Sudoeste 0 -- -- 75
2017-09-14 19:00:00 23 13 Sudoeste 36 Oeste 0 -- -- 65
2017-09-14 18:00:00 24.8 21 Oeste 42 Oeste 0 -- -- 49
2017-09-14 17:00:00 25.3 22 Oeste 44 Oeste 0 -- -- 51
2017-09-14 16:00:00 27 26 Sudoeste 40 Sudoeste 0 -- -- 47
2017-09-14 15:00:00 25.6 14 Sudoeste 27 Sudoeste 0 -- -- 53
2017-09-14 14:00:00 26.1 11 Sudoeste 31 Sudoeste 0 -- -- 50
2017-09-14 13:00:00 23.7 9 Sudoeste 19 Sudoeste 0 -- -- 61
2017-09-14 12:00:00 22.2 10 Sudoeste 20 Sudoeste 0 -- -- 67
2017-09-14 11:00:00 20.6 5 Sur 10 Sudoeste 0 -- -- 69
2017-09-14 10:00:00 18.1 5 Este 8 Este 0 -- -- 70
2017-09-14 09:00:00 14.6 5 Este 13 Este 0 -- -- 77
2017-09-14 08:00:00 12.4 8 Este 12 Este 0 -- -- 83
2017-09-14 07:00:00 12.9 7 Este 12 Este 0 -- -- 82
2017-09-14 06:00:00 13.2 7 Este 10 Nordeste 0 -- -- 80
2017-09-14 05:00:00 13.5 6 Este 13 Este 0 -- -- 80
2017-09-14 04:00:00 13.9 7 Este 13 Este 0 -- -- 79
2017-09-14 03:00:00 14.6 7 Este 12 Este 0 -- -- 76
2017-09-14 02:00:00 15.2 7 Este 12 Este 0 -- -- 77
2017-09-14 01:00:00 16.1 5 Este 8 Este 0 -- -- 79
2017-09-14 00:00:00 17.4 4 Este 6 Este 0 -- -- 75
2017-09-13 23:00:00 18.7 0 Calma 6 Este 0 -- -- 70
2017-09-13 22:00:00 20 4 Este 7 Sudeste 0 -- -- 67
2017-09-13 21:00:00 21.3 4 Oeste 22 Sudoeste 0 -- -- 62
2017-09-13 20:00:00 23.8 16 Oeste 33 Oeste 0 -- -- 39
2017-09-13 19:00:00 25.9 23 Oeste 33 Oeste 0 -- -- 34
2017-09-13 18:00:00 26.6 22 Oeste 41 Oeste 0 -- -- 33
2017-09-13 17:00:00 27.1 24 Sudoeste 35 Sudoeste 0 -- -- 30
2017-09-13 16:00:00 26.7 23 Sudoeste 37 Sudoeste 0 -- -- 31
2017-09-13 15:00:00 26.4 14 Sudoeste 28 Oeste 0 -- -- 32
2017-09-13 14:00:00 23.7 7 Sur 21 Sudoeste 0 -- -- 43
2017-09-13 13:00:00 22.6 7 Sudoeste 16 Sur 0 -- -- 48
2017-09-13 12:00:00 20.9 7 Sudoeste 15 Sudoeste 0 -- -- 52
2017-09-13 11:00:00 19.6 8 Oeste 14 Sudoeste 0 -- -- 60
2017-09-13 10:00:00 17.3 4 Este 13 Este 0 -- -- 65
2017-09-13 09:00:00 14.5 6 Este 12 Este 0 -- -- 75
2017-09-13 08:00:00 12.4 7 Este 22 Nordeste 0 -- -- 82
2017-09-13 07:00:00 12.4 6 Este 14 Sudeste 0 -- -- 83
2017-09-13 06:00:00 12.4 6 Este 10 Este 0 -- -- 85
2017-09-13 05:00:00 13.1 5 Este 10 Nordeste 0 -- -- 83
2017-09-13 04:00:00 13.6 4 Este 9 Este 0 -- -- 83
2017-09-13 03:00:00 13.5 4 Este 6 Nordeste 0 -- -- 86
2017-09-13 02:00:00 14.1 3 Nordeste 5 Norte 0 -- -- 81
2017-09-13 01:00:00 14.8 4 Noroeste 6 Noroeste 0 -- -- 79
2017-09-13 00:00:00 15.9 3 Sudoeste 7 Sudeste 0 -- -- 85
2017-09-12 23:00:00 16.1 0 Calma 8 Sur 0 -- -- 84
2017-09-12 22:00:00 16.5 2 Oeste 22 Sudoeste 0 -- -- 78
2017-09-12 21:00:00 18.2 12 Sudoeste 25 Sudoeste 0 -- -- 61
2017-09-12 20:00:00 19.7 17 Oeste 30 Oeste 0 -- -- 47
2017-09-12 19:00:00 20.5 20 Oeste 29 Oeste 0 -- -- 47
2017-09-12 18:00:00 21.7 17 Sudoeste 33 Sur 0 -- -- 45
2017-09-12 17:00:00 21.1 17 Sudoeste 30 Sudoeste 0 -- -- 47
2017-09-12 16:00:00 20.6 13 Sudoeste 23 Oeste 0 -- -- 51
2017-09-12 15:00:00 21.1 9 Sur 22 Oeste 0 -- -- 51
2017-09-12 14:00:00 19.6 9 Oeste 17 Sudoeste 0 -- -- 59
2017-09-12 13:00:00 17.4 7 Sur 15 Sudoeste 0 -- -- 65
2017-09-12 12:00:00 15.7 7 Oeste 15 Sudoeste 0 -- -- 75
2017-09-12 11:00:00 13.8 6 Sudoeste 14 Este 0 -- -- 82
2017-09-12 10:00:00 13.5 3 Este 10 Nordeste 0 -- -- 81
2017-09-12 09:00:00 12.8 3 Nordeste 8 Este 0 -- -- 84
2017-09-12 08:00:00 12.3 3 Este 6 Nordeste 0 -- -- 86
2017-09-12 07:00:00 12.2 3 Este 7 Este 0 -- -- 85
2017-09-12 06:00:00 12.9 4 Este 7 Sudeste 0 -- -- 84
2017-09-12 05:00:00 14.1 2 Este 8 Sur 0 -- -- 84
2017-09-12 04:00:00 14.5 0 Calma 4 Sudoeste 0 -- -- 85
2017-09-12 03:00:00 15 3 Sur 5 Sur 0 -- -- 85
2017-09-12 02:00:00 15 4 Este 6 Este 0 -- -- 84
2017-09-12 01:00:00 15.6 2 Este 8 Este 0 -- -- 81
2017-09-12 00:00:00 16.1 5 Nordeste 12 Sudeste 0 -- -- 79
2017-09-11 23:00:00 17.1 5 Nordeste 14 Nordeste 0 -- -- 75
2017-09-11 22:00:00 18.1 6 Nordeste 15 Este 0 -- -- 72
2017-09-11 21:00:00 19.1 6 Nordeste 20 Este 0 -- -- 68
2017-09-11 20:00:00 20.7 8 Este 26 Oeste 0 -- -- 62
2017-09-11 19:00:00 24.3 23 Oeste 42 Oeste 0 -- -- 40
2017-09-11 18:00:00 25.6 24 Oeste 44 Sudoeste 0 -- -- 39
2017-09-11 17:00:00 25.1 27 Oeste 41 Oeste 0 -- -- 41
2017-09-11 16:00:00 26.2 14 Oeste 32 Oeste 0 -- -- 39
2017-09-11 15:00:00 25.5 8 Sur 22 Sudoeste 0 -- -- 44
2017-09-11 14:00:00 23.3 10 Sudoeste 24 Oeste 0 -- -- 45
2017-09-11 13:00:00 22.2 9 Sudoeste 19 Oeste 0 -- -- 46
2017-09-11 12:00:00 20.3 7 Sudoeste 15 Sudoeste 0 -- -- 49
2017-09-11 11:00:00 18.6 5 Oeste 12 Sudoeste 0 -- -- 55
2017-09-11 10:00:00 15.8 4 Este 10 Este 0 -- -- 57
2017-09-11 09:00:00 12.7 3 Este 8 Este 0 -- -- 65
2017-09-11 08:00:00 9.9 5 Este 9 Este 0 -- -- 74
2017-09-11 07:00:00 10.1 4 Nordeste 10 Nordeste 0 -- -- 73
2017-09-11 06:00:00 11.1 4 Este 9 Este 0 -- -- 67
2017-09-11 05:00:00 11.4 6 Este 10 Este 0 -- -- 68
2017-09-11 04:00:00 11.3 6 Este 10 Este 0 -- -- 71
2017-09-11 03:00:00 12.2 2 Sur 9 Este 0 -- -- 64
2017-09-11 02:00:00 12.9 5 Este 9 Este 0 -- -- 63
2017-09-11 01:00:00 13.8 2 Sudoeste 7 Este 0 -- -- 58
2017-09-11 00:00:00 15 4 Sudoeste 10 Oeste 0 -- -- 56
2017-09-10 23:00:00 15.8 6 Sudoeste 9 Sudoeste 0 -- -- 46
2017-09-10 22:00:00 16.8 4 Este 17 Nordeste 0 -- -- 40
2017-09-10 21:00:00 17.4 13 Nordeste 24 Este 0 -- -- 38
2017-09-10 20:00:00 18.4 8 Nordeste 23 Norte 0 -- -- 36
2017-09-10 19:00:00 19.8 11 Nordeste 47 Este 0 -- -- 34
2017-09-10 18:00:00 21.1 16 Este 35 Este 0 -- -- 32
2017-09-10 17:00:00 21.6 14 Este 30 Este 0 -- -- 28
2017-09-10 16:00:00 21.9 8 Oeste 18 Sudoeste 0 -- -- 33
2017-09-10 15:00:00 20 8 Oeste 17 Oeste 0 -- -- 39
2017-09-10 14:00:00 20.8 9 Sudoeste 23 Sudoeste 0 -- -- 40
2017-09-10 13:00:00 19.7 7 Sudoeste 18 Sudoeste 0 -- -- 46
2017-09-10 12:00:00 17.7 10 Sudoeste 17 Sudoeste 0.2 -- -- 50
2017-09-10 11:00:00 14.9 9 Sudoeste 13 Sudoeste 0 -- -- 76
2017-09-10 10:00:00 12.7 3 Oeste 11 Sur 0 -- -- 85
2017-09-10 09:00:00 9.7 5 Nordeste 13 Nordeste 0 -- -- 89
2017-09-10 08:00:00 7.5 3 Este 11 Nordeste 0 -- -- 92
2017-09-10 07:00:00 7.7 7 Este 14 Este 0 -- -- 91
2017-09-10 06:00:00 8.3 6 Este 12 Este 0 -- -- 90
2017-09-10 05:00:00 8.9 5 Este 12 Nordeste 0 -- -- 92
2017-09-10 04:00:00 9.5 5 Nordeste 10 Nordeste 0 -- -- 93
2017-09-10 03:00:00 10.1 5 Este 9 Este 0 -- -- 94
2017-09-10 02:00:00 10.5 6 Este 9 Oeste 0 -- -- 94
2017-09-10 01:00:00 11.2 4 Oeste 7 Oeste 0 -- -- 92
2017-09-10 00:00:00 11.1 3 Nordeste 11 Este 0 -- -- 91
2017-09-09 23:00:00 11.5 6 Nordeste 24 Nordeste 2.4 -- -- 83
2017-09-09 22:00:00 14.6 4 Sudeste 7 Este 0.6 -- -- 93
2017-09-09 21:00:00 14.9 2 Sur 6 Este 0 -- -- 91
2017-09-09 20:00:00 15.1 3 Sur 7 Sudoeste 0 -- -- 91
2017-09-09 19:00:00 15.6 2 Nordeste 7 Este 0 -- -- 88
2017-09-09 18:00:00 16 5 Nordeste 10 Nordeste 0 -- -- 89
2017-09-09 17:00:00 15.1 4 Este 15 Este 0 -- -- 93
2017-09-09 16:00:00 15.1 5 Este 33 Oeste 0.2 -- -- 91
2017-09-09 15:00:00 15.5 5 Sur 21 Sudoeste 0.4 -- -- 91
2017-09-09 14:00:00 15.5 8 Este 17 Este 2 -- -- 90
2017-09-09 13:00:00 15.6 6 Este 12 Nordeste 1.4 -- -- 86
2017-09-09 12:00:00 16.8 4 Este 9 Nordeste 0 -- -- 69
2017-09-09 11:00:00 16.8 4 Este 10 Nordeste 0 -- -- 67
2017-09-09 10:00:00 15.8 4 Nordeste 12 Este 0 -- -- 70
2017-09-09 09:00:00 14.8 6 Este 12 Nordeste 0 -- -- 76
2017-09-09 08:00:00 14.2 6 Este 16 Nordeste 0 -- -- 79
2017-09-09 07:00:00 13.6 10 Este 17 Este 0 -- -- 85
2017-09-09 06:00:00 13.4 6 Este 15 Nordeste 0 -- -- 85
2017-09-09 05:00:00 13.4 8 Este 14 Este 0 -- -- 86
2017-09-09 04:00:00 13.7 6 Este 11 Este 0 -- -- 87
2017-09-09 03:00:00 14.5 3 Este 8 Este 0 -- -- 89
2017-09-09 02:00:00 15 4 Sudoeste 7 Sudoeste 0 -- -- 88
2017-09-09 01:00:00 15.8 3 Nordeste 5 Nordeste 0 -- -- 86
2017-09-09 00:00:00 16.6 3 Sudeste 9 Sudoeste 0 -- -- 82
2017-09-08 23:00:00 16.6 4 Sudoeste 8 Sudoeste 0 -- -- 83
2017-09-08 22:00:00 17.5 3 Sur 14 Oeste 0 -- -- 77
2017-09-08 21:00:00 18.1 8 Sudoeste 22 Oeste 0 -- -- 74
2017-09-08 20:00:00 19.7 14 Oeste 25 Sudoeste 0 -- -- 66
2017-09-08 19:00:00 22 14 Sudoeste 31 Sudoeste 0 -- -- 60
2017-09-08 18:00:00 23.4 17 Sudoeste 35 Sudoeste 0 -- -- 55
2017-09-08 17:00:00 24.3 18 Sudoeste 34 Sudoeste 0 -- -- 51
2017-09-08 16:00:00 24 13 Sudoeste 29 Sudoeste 0 -- -- 50
2017-09-08 15:00:00 23.3 10 Sudoeste 27 Sudoeste 0 -- -- 53
2017-09-08 14:00:00 22.8 13 Sudoeste 31 Sudoeste 0 -- -- 53
2017-09-08 13:00:00 21.7 16 Sudoeste 30 Sudoeste 0 -- -- 54
2017-09-08 12:00:00 20.1 11 Sudoeste 21 Sudoeste 0 -- -- 65
2017-09-08 11:00:00 19.1 7 Sudoeste 13 Sudoeste 0 -- -- 68
2017-09-08 10:00:00 16.2 3 Este 8 Este 0 -- -- 69
2017-09-08 09:00:00 14.1 5 Nordeste 13 Este 0 -- -- 74
2017-09-08 08:00:00 12.1 7 Este 15 Nordeste 0 -- -- 80
2017-09-08 07:00:00 12.2 8 Este 12 Este 0 -- -- 81
2017-09-08 06:00:00 12.6 8 Este 13 Este 0 -- -- 81
2017-09-08 05:00:00 13.1 6 Este 13 Este 0 -- -- 82
2017-09-08 04:00:00 13.4 6 Este 12 Este 0 -- -- 83
2017-09-08 03:00:00 13.9 6 Este 11 Este 0 -- -- 82
2017-09-08 02:00:00 14.4 5 Este 10 Nordeste 0 -- -- 81
2017-09-08 01:00:00 15.1 6 Este 9 Nordeste 0 -- -- 79
2017-09-08 00:00:00 15.9 5 Este 8 Este 0 -- -- 78
2017-09-07 23:00:00 17 4 Este 8 Este 0 -- -- 74
2017-09-07 22:00:00 18.2 3 Sur 12 Sudeste 0 -- -- 68
2017-09-07 21:00:00 19.7 4 Sudeste 14 Sur 0 -- -- 60
2017-09-07 20:00:00 21.2 6 Sudoeste 17 Sudoeste 0 -- -- 56
2017-09-07 19:00:00 22.6 8 Sudoeste 19 Sudoeste 0 -- -- 51
2017-09-07 18:00:00 23.4 13 Sudoeste 26 Sudoeste 0 -- -- 49
2017-09-07 17:00:00 24.1 13 Sudoeste 27 Oeste 0 -- -- 48
2017-09-07 16:00:00 23.8 12 Sudoeste 25 Oeste 0 -- -- 47
2017-09-07 15:00:00 22.7 8 Sudoeste 25 Sudoeste 0 -- -- 54
2017-09-07 14:00:00 20.8 6 Sur 19 Sur 0 -- -- 65
2017-09-07 13:00:00 18.8 6 Sudoeste 15 Sudoeste 0 -- -- 72
2017-09-07 12:00:00 16.2 3 Sudoeste 9 Oeste 0 -- -- 83
2017-09-07 11:00:00 14.6 5 Sudoeste 12 Sudoeste 0 -- -- 86
2017-09-07 10:00:00 14.4 8 Sudoeste 13 Sudoeste 0 -- -- 85
2017-09-07 09:00:00 13.7 7 Sudoeste 12 Sudoeste 0 -- -- 87
2017-09-07 08:00:00 13.5 4 Sudoeste 11 Sur 0 -- -- 89
2017-09-07 07:00:00 14.8 3 Sur 10 Sur 0 -- -- 89
2017-09-07 06:00:00 15.5 3 Sudoeste 10 Oeste 0 -- -- 91
2017-09-07 05:00:00 16.5 4 Sur 9 Sur 0 -- -- 92
2017-09-07 04:00:00 17.3 5 Este 8 Este 0 -- -- 91
2017-09-07 03:00:00 17.4 3 Este 8 Este 0 -- -- 92
2017-09-07 02:00:00 17.3 4 Este 9 Este 0 -- -- 93
2017-09-07 01:00:00 17.7 3 Este 6 Este 0 -- -- 93
2017-09-07 00:00:00 17.7 5 Nordeste 10 Este 0 -- -- 92
2017-09-06 23:00:00 18 5 Este 10 Este 0.2 -- -- 91
2017-09-06 22:00:00 18.6 2 Oeste 11 Sudoeste 2.6 -- -- 89
2017-09-06 21:00:00 19.2 3 Este 18 Sudeste 2 -- -- 85
2017-09-06 20:00:00 20.9 10 Este 39 Este 3 -- -- 77
2017-09-06 19:00:00 23.9 15 Sudoeste 33 Sudoeste 0 -- -- 68
2017-09-06 18:00:00 25.9 19 Sudoeste 37 Sudoeste 0 -- -- 45
2017-09-06 17:00:00 27.3 25 Sudoeste 36 Oeste 0 -- -- 43
2017-09-06 16:00:00 26.9 23 Sudoeste 37 Oeste 0 -- -- 47
2017-09-06 15:00:00 26.1 20 Sudoeste 33 Sudoeste 0 -- -- 55
2017-09-06 14:00:00 25.5 16 Sudoeste 29 Sudoeste 0 -- -- 59
2017-09-06 13:00:00 24.3 12 Sudoeste 24 Sudoeste 0 -- -- 64
2017-09-06 12:00:00 23.4 9 Sudoeste 17 Sur 0 -- -- 65
2017-09-06 11:00:00 22.9 9 Sudoeste 17 Sudoeste 0 -- -- 67
2017-09-06 10:00:00 21.5 5 Sudoeste 8 Sudeste 0 -- -- 71
2017-09-06 09:00:00 19 4 Este 11 Este 0 -- -- 77
2017-09-06 08:00:00 17.3 6 Este 10 Este 0 -- -- 82
2017-09-06 07:00:00 17.8 4 Este 10 Este 0 -- -- 79
2017-09-06 06:00:00 18.4 6 Este 9 Este 0 -- -- 78
2017-09-06 05:00:00 19 3 Este 6 Este 0 -- -- 76
2017-09-06 04:00:00 19.6 4 Este 6 Este 0 -- -- 75
2017-09-06 03:00:00 20.2 3 Este 5 Este 0 -- -- 73
2017-09-06 02:00:00 21.3 0 Calma 4 Este 0 -- -- 69
2017-09-06 01:00:00 21.9 2 Noroeste 5 Oeste 0 -- -- 68
2017-09-06 00:00:00 22.8 3 Este 4 Este 0 -- -- 62
2017-09-05 23:00:00 23.5 0 Calma 6 Sudeste 0 -- -- 63
2017-09-05 22:00:00 24.3 3 Este 9 Sudeste 0 -- -- 56
2017-09-05 21:00:00 25.3 5 Sur 10 Sur 0 -- -- 55
2017-09-05 20:00:00 26.3 5 Sudoeste 20 Sudoeste 0 -- -- 48
2017-09-05 19:00:00 27.9 12 Sudoeste 26 Sudoeste 0 -- -- 43
2017-09-05 18:00:00 29.4 13 Sudoeste 24 Sudoeste 0 -- -- 34
2017-09-05 17:00:00 29.6 13 Sudoeste 30 Oeste 0 -- -- 36
2017-09-05 16:00:00 29.7 14 Sudoeste 34 Sudoeste 0 -- -- 35
2017-09-05 15:00:00 29 15 Sudoeste 27 Sudoeste 0 -- -- 39
2017-09-05 14:00:00 27.5 12 Sudoeste 23 Sudoeste 0 -- -- 45
2017-09-05 13:00:00 25.8 8 Sur 18 Sur 0 -- -- 49
2017-09-05 12:00:00 24.2 7 Oeste 17 Sudoeste 0 -- -- 57
2017-09-05 11:00:00 22.6 5 Sudoeste 13 Sudoeste 0 -- -- 65
2017-09-05 10:00:00 21.2 5 Sudoeste 12 Este 0 -- -- 68
2017-09-05 09:00:00 17.7 8 Este 14 Este 0 -- -- 77
2017-09-05 08:00:00 15 6 Este 11 Este 0 -- -- 88
2017-09-05 07:00:00 15.1 7 Este 11 Este 0 -- -- 88
2017-09-05 06:00:00 15.4 6 Este 10 Este 0 -- -- 87
2017-09-05 05:00:00 16.2 6 Este 10 Este 0 -- -- 84
2017-09-05 04:00:00 16.6 6 Este 10 Este 0 -- -- 83
2017-09-05 03:00:00 17.3 4 Nordeste 9 Este 0 -- -- 82
2017-09-05 02:00:00 18 4 Este 6 Este 0 -- -- 82
2017-09-05 01:00:00 18.9 2 Norte 9 Este 0 -- -- 79
2017-09-05 00:00:00 19.7 3 Este 9 Este 0 -- -- 77
2017-09-04 23:00:00 20.1 3 Sudoeste 7 Sudoeste 0 -- -- 76
2017-09-04 22:00:00 20.6 6 Sudoeste 8 Sudoeste 0 -- -- 75
2017-09-04 21:00:00 20.8 3 Este 5 Este 0 -- -- 72
2017-09-04 20:00:00 21.4 4 Sudoeste 10 Oeste 0 -- -- 70
2017-09-04 19:00:00 22.4 8 Oeste 14 Sudoeste 0 -- -- 65
2017-09-04 18:00:00 22.1 5 Sudoeste 22 Sudoeste 0 -- -- 65
2017-09-04 17:00:00 21.7 13 Sudoeste 33 Sudoeste 0 -- -- 62
2017-09-04 16:00:00 22.5 26 Oeste 39 Oeste 0 -- -- 58
2017-09-04 15:00:00 23.8 4 Noroeste 12 Sudoeste 0 -- -- 52
2017-09-04 14:00:00 25.5 8 Sudoeste 19 Oeste 0 -- -- 47
2017-09-04 13:00:00 24.5 9 Sudoeste 18 Sudoeste 0 -- -- 50
2017-09-04 12:00:00 23.9 5 Sudoeste 15 Este 0 -- -- 54
2017-09-04 11:00:00 21.5 4 Este 12 Este 0 -- -- 62
2017-09-04 10:00:00 20 3 Nordeste 10 Sudeste 0 -- -- 68
2017-09-04 09:00:00 17.3 5 Este 15 Norte 0 -- -- 77
2017-09-04 08:00:00 16.4 6 Este 11 Este 0 -- -- 80
2017-09-04 07:00:00 16.3 4 Este 8 Este 0 -- -- 82
2017-09-04 06:00:00 16.6 2 Este 9 Este 0 -- -- 82
2017-09-04 05:00:00 16.9 2 Sudoeste 7 Sudeste 0 -- -- 83
2017-09-04 04:00:00 17.2 3 Este 6 Este 0 -- -- 82
2017-09-04 03:00:00 17.4 0 Calma 10 Este 0 -- -- 83
2017-09-04 02:00:00 17.3 4 Este 9 Este 0 -- -- 83
2017-09-04 01:00:00 17.8 4 Sudoeste 6 Este 0 -- -- 82
2017-09-04 00:00:00 18.2 3 Sudoeste 6 Oeste 0 -- -- 81
2017-09-03 23:00:00 18.9 3 Oeste 9 Sudeste 0 -- -- 77
2017-09-03 22:00:00 20.3 3 Sur 21 Sudoeste 0 -- -- 71
2017-09-03 21:00:00 21.7 6 Este 21 Oeste 0 -- -- 57
2017-09-03 20:00:00 22.6 18 Oeste 36 Sudoeste 0 -- -- 38
2017-09-03 19:00:00 24.2 15 Sudoeste 31 Sudoeste 0 -- -- 34
2017-09-03 18:00:00 24.9 12 Sudoeste 32 Sudoeste 0 -- -- 31
2017-09-03 17:00:00 25.4 18 Sudoeste 31 Sudoeste 0 -- -- 31
2017-09-03 16:00:00 24.8 16 Sudoeste 28 Sudoeste 0 -- -- 33
2017-09-03 15:00:00 22.5 12 Sudoeste 25 Sudoeste 0 -- -- 41
2017-09-03 14:00:00 21.4 12 Sudoeste 22 Oeste 0 -- -- 51
2017-09-03 13:00:00 19.9 10 Sudoeste 23 Sudoeste 0 -- -- 57
2017-09-03 12:00:00 19 3 Sudeste 13 Sudoeste 0 -- -- 61
2017-09-03 11:00:00 18.8 5 Sudoeste 14 Sudoeste 0 -- -- 65
2017-09-03 10:00:00 16.6 3 Este 12 Este 0 -- -- 66
2017-09-03 09:00:00 14.5 6 Este 13 Este 0 -- -- 73
2017-09-03 08:00:00 12.7 6 Este 12 Sudeste 0 -- -- 76
2017-09-03 07:00:00 12.5 8 Este 14 Este 0 -- -- 77
2017-09-03 06:00:00 12.4 7 Este 14 Este 0 -- -- 76
2017-09-03 05:00:00 13.1 8 Este 15 Este 0 -- -- 73
2017-09-03 04:00:00 13.1 8 Este 15 Nordeste 0 -- -- 74
2017-09-03 03:00:00 12.7 9 Este 15 Nordeste 0 -- -- 76
2017-09-03 02:00:00 13 6 Este 9 Este 0 -- -- 74
2017-09-03 01:00:00 14 5 Este 10 Este 0 -- -- 75
2017-09-03 00:00:00 15.2 4 Nordeste 9 Nordeste 0 -- -- 71
2017-09-02 23:00:00 16.2 4 Nordeste 8 Norte 0 -- -- 64
2017-09-02 22:00:00 17.4 4 Oeste 12 Sudoeste 0 -- -- 61
2017-09-02 21:00:00 19.2 5 Oeste 17 Sur 0 -- -- 53
2017-09-02 20:00:00 21.7 8 Oeste 18 Oeste 0 -- -- 36
2017-09-02 19:00:00 24 5 Sudeste 22 Sur 0 -- -- 30
2017-09-02 18:00:00 24.5 12 Sur 31 Oeste 0 -- -- 30
2017-09-02 17:00:00 25 9 Sur 30 Sudoeste 0 -- -- 28
2017-09-02 16:00:00 24.4 11 Sur 37 Sudoeste 0 -- -- 29
2017-09-02 15:00:00 23.5 9 Sudoeste 22 Sudoeste 0 -- -- 29
2017-09-02 14:00:00 22.6 13 Sudoeste 28 Sudoeste 0 -- -- 32
2017-09-02 13:00:00 21.3 7 Sur 21 Sudoeste 0 -- -- 37
2017-09-02 12:00:00 19.8 11 Sudoeste 19 Sudoeste 0 -- -- 41
2017-09-02 11:00:00 17.3 9 Sudoeste 18 Sudoeste 0 -- -- 63
2017-09-02 10:00:00 15.6 8 Sudoeste 12 Sudoeste 0 -- -- 68
2017-09-02 09:00:00 13 4 Sudoeste 8 Sudoeste 0 -- -- 74
2017-09-02 08:00:00 10.4 4 Este 10 Sudeste 0 -- -- 84
2017-09-02 07:00:00 11 5 Este 10 Oeste 0 -- -- 83
2017-09-02 06:00:00 12.4 4 Este 13 Nordeste 0 -- -- 76
2017-09-02 05:00:00 12.8 5 Este 15 Nordeste 0 -- -- 79
2017-09-02 04:00:00 13.5 9 Nordeste 14 Nordeste 0 -- -- 79
2017-09-02 03:00:00 14 7 Nordeste 14 Este 0 -- -- 79
2017-09-02 02:00:00 14.4 5 Este 7 Este 0 -- -- 82
2017-09-02 01:00:00 15.3 0 Calma 5 Sur 0 -- -- 76
2017-09-02 00:00:00 16 3 Oeste 16 Sudoeste 0 -- -- 78
2017-09-01 23:00:00 16.9 5 Sudoeste 16 Sur 0 -- -- 79
2017-09-01 22:00:00 17.9 9 Sudoeste 21 Sudoeste 0 -- -- 50
2017-09-01 21:00:00 19.3 16 Sudoeste 28 Sudoeste 0 -- -- 47
2017-09-01 20:00:00 21 19 Sudoeste 35 Oeste 0 -- -- 40
2017-09-01 19:00:00 22.9 20 Oeste 39 Sudoeste 0 -- -- 36
2017-09-01 18:00:00 23.2 23 Sudoeste 44 Sudoeste 0 -- -- 35
2017-09-01 17:00:00 23.5 23 Sudoeste 39 Sudoeste 0 -- -- 38
2017-09-01 16:00:00 23.1 24 Sudoeste 42 Sudoeste 0 -- -- 40
2017-09-01 15:00:00 22.7 26 Oeste 39 Sudoeste 0 -- -- 41
2017-09-01 14:00:00 21.3 9 Sudeste 25 Sudoeste 0 -- -- 54
2017-09-01 13:00:00 19.8 9 Sudoeste 17 Sudoeste 0 -- -- 68
2017-09-01 12:00:00 17.5 5 Oeste 13 Sur 0 -- -- 82
2017-09-01 11:00:00 15.2 3 Sur 10 Sudoeste 0 -- -- 88
2017-09-01 10:00:00 14.3 4 Sur 12 Sur 0.4 -- -- 93
2017-09-01 09:00:00 14.7 4 Sur 11 Sudoeste 1.4 -- -- 94
2017-09-01 08:00:00 14.5 0 Calma 6 Este 0 -- -- 93
2017-09-01 07:00:00 14.6 3 Este 7 Este 0 -- -- 94
2017-09-01 06:00:00 14.8 3 Sur 6 Este 0 -- -- 96
2017-09-01 05:00:00 14.6 3 Este 7 Este 0 -- -- 96
2017-09-01 04:00:00 14.6 4 Sur 7 Oeste 0 -- -- 96
2017-09-01 03:00:00 14.8 4 Sudoeste 12 Este 0 -- -- 95
2017-09-01 02:00:00 14.8 4 Este 8 Este 0 -- -- 95
2017-09-01 01:00:00 15.4 3 Este 6 Este 0 -- -- 94
2017-09-01 00:00:00 15.7 0 Calma 6 Este 0 -- -- 93
2017-08-31 23:00:00 16 0 Calma 5 Este 0 -- -- 93
2017-08-31 22:00:00 15.8 3 Oeste 11 Sudoeste 0.2 -- -- 93
2017-08-31 21:00:00 16.4 6 Sudoeste 9 Sudoeste 5.8 -- -- 91
2017-08-31 20:00:00 17.3 4 Sudeste 27 Oeste 5 -- -- 84
2017-08-31 19:00:00 20 11 Oeste 23 Oeste 1 -- -- 79
2017-08-31 18:00:00 21.5 10 Sudoeste 26 Oeste 0 -- -- 71
2017-08-31 17:00:00 21.3 8 Sudoeste 19 Sudoeste 0.2 -- -- 74
2017-08-31 16:00:00 21.4 15 Sudoeste 31 Sudoeste 0 -- -- 72
2017-08-31 15:00:00 22.4 15 Sudoeste 32 Sudoeste 0 -- -- 72
2017-08-31 14:00:00 20.9 7 Sur 19 Sudoeste 0 -- -- 78
2017-08-31 13:00:00 19 6 Oeste 13 Sudoeste 0.6 -- -- 85
2017-08-31 12:00:00 20.2 8 Sudoeste 13 Sudoeste 0 -- -- 77
2017-08-31 11:00:00 18.8 4 Sudoeste 11 Sudoeste 0 -- -- 89
2017-08-31 10:00:00 17.9 3 Este 7 Sudoeste 1.2 -- -- 91
2017-08-31 09:00:00 18.2 5 Sudoeste 9 Sudeste 0.6 -- -- 84
2017-08-31 08:00:00 18.1 7 Este 15 Este 0 -- -- 80
2017-08-31 07:00:00 18.1 8 Este 16 Este 0 -- -- 81
2017-08-31 06:00:00 17.8 7 Este 12 Este 0 -- -- 83
2017-08-31 05:00:00 18.3 3 Nordeste 8 Este 0 -- -- 79
2017-08-31 04:00:00 18.2 4 Nordeste 12 Este 0 -- -- 79
2017-08-31 03:00:00 18.5 0 Calma 5 Este 0 -- -- 80
2017-08-31 02:00:00 18.6 4 Este 6 Este 0 -- -- 78
2017-08-31 01:00:00 19.1 3 Sudoeste 8 Sudoeste 0 -- -- 75
2017-08-31 00:00:00 19.3 3 Este 7 Este 0 -- -- 73
2017-08-30 23:00:00 19.9 2 Este 6 Sudoeste 0 -- -- 70
2017-08-30 22:00:00 20.5 4 Sur 11 Sudoeste 0 -- -- 68
2017-08-30 21:00:00 20.9 4 Oeste 16 Sudoeste 0 -- -- 64
2017-08-30 20:00:00 22.6 10 Sudoeste 16 Sudoeste 0 -- -- 58
2017-08-30 19:00:00 24.1 9 Sudoeste 26 Sudoeste 0 -- -- 53
2017-08-30 18:00:00 25 18 Sudoeste 31 Sudoeste 0 -- -- 46
2017-08-30 17:00:00 26.4 21 Sudoeste 38 Oeste 0 -- -- 42
2017-08-30 16:00:00 25.6 22 Oeste 41 Oeste 0 -- -- 46
2017-08-30 15:00:00 25.5 22 Oeste 37 Oeste 0 -- -- 49
2017-08-30 14:00:00 25.4 23 Sudoeste 40 Oeste 0 -- -- 49
2017-08-30 13:00:00 25.2 10 Sudoeste 18 Sudoeste 0 -- -- 55
2017-08-30 12:00:00 22.7 6 Oeste 14 Oeste 0 -- -- 67
2017-08-30 11:00:00 19.7 5 Este 22 Oeste 0 -- -- 81
2017-08-30 10:00:00 18.1 8 Nordeste 23 Sudoeste 0 -- -- 85
2017-08-30 09:00:00 16.9 6 Este 12 Nordeste 0.2 -- -- 91
2017-08-30 08:00:00 16.5 6 Este 10 Nordeste 0.2 -- -- 90
2017-08-30 07:00:00 17.1 2 Nordeste 8 Sudoeste 1.4 -- -- 85
2017-08-30 06:00:00 17.1 3 Nordeste 14 Sudeste 0.2 -- -- 82
2017-08-30 05:00:00 17.5 5 Este 13 Sudoeste 0.4 -- -- 79
2017-08-30 04:00:00 18.4 5 Sudoeste 10 Este 0 -- -- 67
2017-08-30 03:00:00 18.4 6 Este 10 Este 0 -- -- 68
2017-08-30 02:00:00 19 5 Nordeste 14 Nordeste 0 -- -- 66
2017-08-30 01:00:00 19.2 7 Este 12 Nordeste 0 -- -- 68
2017-08-30 00:00:00 20.4 5 Este 9 Este 0 -- -- 64
2017-08-29 23:00:00 21.3 6 Este 10 Este 0 -- -- 60
2017-08-29 22:00:00 22.5 3 Norte 8 Este 0 -- -- 56
2017-08-29 21:00:00 23.2 3 Nordeste 8 Este 0 -- -- 52
2017-08-29 20:00:00 24.4 4 Sur 31 Oeste 0 -- -- 48
2017-08-29 19:00:00 24.7 21 Oeste 36 Oeste 0 -- -- 46
2017-08-29 18:00:00 27.4 17 Oeste 28 Sudoeste 0 -- -- 39
2017-08-29 17:00:00 28.8 15 Sudoeste 33 Sudoeste 0 -- -- 37
2017-08-29 16:00:00 28 21 Oeste 41 Oeste 0 -- -- 39
2017-08-29 15:00:00 29.5 25 Sudoeste 35 Sudoeste 0 -- -- 37
2017-08-29 14:00:00 29.9 18 Sudoeste 39 Sudoeste 0 -- -- 37
2017-08-29 13:00:00 30.3 19 Sudoeste 33 Sudoeste 0 -- -- 37
2017-08-29 12:00:00 27.6 6 Sudoeste 17 Sudoeste 0 -- -- 47
2017-08-29 11:00:00 26.2 6 Oeste 14 Sudoeste 0 -- -- 53
2017-08-29 10:00:00 23.5 4 Sur 10 Sudoeste 0 -- -- 57
2017-08-29 09:00:00 19.8 3 Sur 13 Este 0 -- -- 72
2017-08-29 08:00:00 17.7 7 Este 15 Nordeste 0 -- -- 80
2017-08-29 07:00:00 17.6 5 Este 8 Nordeste 0 -- -- 83
2017-08-29 06:00:00 18.7 4 Este 14 Nordeste 0 -- -- 78
2017-08-29 05:00:00 18.6 9 Nordeste 16 Este 0 -- -- 79
2017-08-29 04:00:00 19.4 7 Este 10 Este 0 -- -- 77
2017-08-29 03:00:00 20.3 8 Este 14 Este 0 -- -- 75
2017-08-29 02:00:00 21.1 7 Este 17 Este 0 -- -- 71
2017-08-29 01:00:00 21.1 8 Este 18 Este 0 -- -- 74
2017-08-29 00:00:00 21.6 5 Este 18 Este 0 -- -- 70
2017-08-28 23:00:00 21.5 9 Este 17 Este 0 -- -- 72
2017-08-28 22:00:00 21.8 9 Este 20 Este 0 -- -- 71
2017-08-28 21:00:00 22.6 15 Este 26 Este 0 -- -- 64
2017-08-28 20:00:00 24.2 10 Este 25 Nordeste 0 -- -- 56
2017-08-28 19:00:00 24.3 17 Este 37 Nordeste 0 -- -- 53
2017-08-28 18:00:00 28.9 12 Nordeste 41 Sudoeste 0 -- -- 36
2017-08-28 17:00:00 34.9 10 Sur 31 Sudoeste 0 -- -- 27
2017-08-28 16:00:00 35 12 Sudoeste 25 Sudoeste 0 -- -- 26
2017-08-28 15:00:00 34.2 9 Oeste 23 Oeste 0 -- -- 27
2017-08-28 14:00:00 32.8 9 Sudoeste 16 Oeste 0 -- -- 30
2017-08-28 13:00:00 31 5 Sudoeste 14 Sudoeste 0 -- -- 41
2017-08-28 12:00:00 28.6 6 Sudoeste 15 Sudoeste 0 -- -- 46
2017-08-28 11:00:00 28.8 5 Oeste 14 Sudoeste 0 -- -- 45
2017-08-28 10:00:00 25.2 0 Calma 13 Nordeste 0 -- -- 46
2017-08-28 09:00:00 20.7 7 Este 14 Este 0 -- -- 55
2017-08-28 08:00:00 18.8 9 Este 14 Este 0 -- -- 60
2017-08-28 07:00:00 18.5 8 Este 15 Este 0 -- -- 61
2017-08-28 06:00:00 19.3 6 Este 13 Este 0 -- -- 60
2017-08-28 05:00:00 19.7 9 Este 15 Este 0 -- -- 58
2017-08-28 04:00:00 20.4 8 Este 14 Este 0 -- -- 57
2017-08-28 03:00:00 20.6 8 Nordeste 14 Este 0 -- -- 60
2017-08-28 02:00:00 20.9 6 Este 10 Nordeste 0 -- -- 61
2017-08-28 01:00:00 21.8 5 Este 8 Nordeste 0 -- -- 60
2017-08-28 00:00:00 22.8 5 Oeste 10 Sudoeste 0 -- -- 57
2017-08-27 23:00:00 24.7 5 Sudoeste 23 Nordeste 0 -- -- 52
2017-08-27 22:00:00 25.2 16 Nordeste 27 Nordeste 0 -- -- 47
2017-08-27 21:00:00 25.8 7 Nordeste 28 Oeste 0 -- -- 53
2017-08-27 20:00:00 26.6 13 Sudoeste 22 Sudoeste 0 -- -- 64
2017-08-27 19:00:00 28.4 16 Sudoeste 34 Sudoeste 0 -- -- 56
2017-08-27 18:00:00 31.2 14 Sudoeste 22 Sudoeste 0 -- -- 31
2017-08-27 17:00:00 33.9 11 Sudoeste 25 Sudoeste 0 -- -- 27
2017-08-27 16:00:00 33.9 8 Sudoeste 24 Sudoeste 0 -- -- 27
2017-08-27 15:00:00 32.9 8 Sudoeste 23 Sudoeste 0 -- -- 31
2017-08-27 14:00:00 31.4 12 Oeste 18 Sudoeste 0 -- -- 37
2017-08-27 13:00:00 30.6 11 Sudoeste 17 Sudoeste 0 -- -- 40
2017-08-27 12:00:00 28.7 8 Sudoeste 13 Sudoeste 0 -- -- 45
2017-08-27 11:00:00 26.8 5 Sudoeste 8 Sudoeste 0 -- -- 49
2017-08-27 10:00:00 24.4 0 Calma 7 Sudoeste 0 -- -- 56
2017-08-27 09:00:00 22.8 3 Noroeste 18 Este 0 -- -- 60
2017-08-27 08:00:00 20.3 5 Nordeste 11 Este 0 -- -- 73
2017-08-27 07:00:00 20.4 4 Este 9 Sudeste 0 -- -- 77
2017-08-27 06:00:00 20.6 5 Este 12 Este 0 -- -- 78
2017-08-27 05:00:00 20.8 5 Este 9 Este 0 -- -- 79
2017-08-27 04:00:00 21 3 Este 9 Este -- -- -- 78
2017-08-27 03:00:00 21.6 2 Sudoeste 10 Sur 0 -- -- 77
2017-08-27 02:00:00 22.3 8 Este 19 Este 0 -- -- 72
2017-08-27 01:00:00 22.2 0 Calma 6 Sudoeste 0 -- -- 75
2017-08-27 00:00:00 23.4 3 Este 8 Nordeste 0 -- -- 71
2017-08-26 23:00:00 24.1 4 Este 12 Sudeste 0 -- -- 69
2017-08-26 22:00:00 25.1 8 Sudoeste 13 Sudoeste 0 -- -- 66
2017-08-26 21:00:00 27 5 Sur 16 Sudoeste 0 -- -- 56
2017-08-26 20:00:00 28.5 9 Sudoeste 18 Sudoeste 0 -- -- 50
2017-08-26 19:00:00 31 15 Sudoeste 27 Sudoeste 0 -- -- 44
2017-08-26 18:00:00 32.6 12 Sudoeste 28 Sudoeste 0 -- -- 37
2017-08-26 17:00:00 33.2 14 Sudoeste 27 Sudoeste 0 -- -- 31
2017-08-26 16:00:00 33.1 12 Sudoeste 25 Sudoeste 0 -- -- 27
2017-08-26 15:00:00 33.2 15 Sudoeste 27 Oeste 0 -- -- 22
2017-08-26 14:00:00 32.2 15 Sudoeste 25 Sudoeste 0 -- -- 22
2017-08-26 13:00:00 31.1 9 Sudoeste 20 Sudoeste 0 -- -- 29
2017-08-26 12:00:00 29.4 8 Sudoeste 16 Sudoeste 0 -- -- 31
2017-08-26 11:00:00 27.7 7 Sudoeste 11 Sudoeste 0 -- -- 35
2017-08-26 10:00:00 24.7 3 Sudoeste 9 Este 0 -- -- 47
2017-08-26 09:00:00 20.4 5 Este 12 Este 0 -- -- 58
2017-08-26 08:00:00 18.2 6 Este 11 Nordeste 0 -- -- 67
2017-08-26 07:00:00 18.5 6 Este 12 Este 0 -- -- 67
2017-08-26 06:00:00 19.5 5 Este 10 Este 0 -- -- 63
2017-08-26 05:00:00 19.9 5 Este 11 Este 0 -- -- 62
2017-08-26 04:00:00 20.7 11 Este 19 Este 0 -- -- 59
2017-08-26 03:00:00 20.8 2 Este 10 Este 0 -- -- 62
2017-08-26 02:00:00 20.9 4 Este 10 Este 0 -- -- 64
2017-08-26 01:00:00 21.7 6 Este 10 Este 0 -- -- 63
2017-08-26 00:00:00 22.6 8 Sudoeste 11 Sudoeste 0 -- -- 59
2017-08-25 23:00:00 23.7 3 Este 13 Sur 0 -- -- 56
2017-08-25 22:00:00 24.7 8 Sur 24 Oeste 0 -- -- 49
2017-08-25 21:00:00 25.7 11 Oeste 15 Oeste 0 -- -- 43
2017-08-25 20:00:00 27.4 3 Noroeste 17 Sudoeste 0 -- -- 39
2017-08-25 19:00:00 29.5 9 Sudoeste 24 Sudoeste 0 -- -- 37
2017-08-25 18:00:00 30.8 17 Sudoeste 31 Sudoeste 0 -- -- 38
2017-08-25 17:00:00 32.2 13 Sudoeste 31 Oeste 0 -- -- 26
2017-08-25 16:00:00 31.1 7 Oeste 25 Sudoeste 0 -- -- 26
2017-08-25 15:00:00 31.3 11 Sudoeste 23 Oeste 0 -- -- 25
2017-08-25 14:00:00 30.5 12 Sudoeste 23 Sudoeste 0 -- -- 24
2017-08-25 13:00:00 29.1 8 Sudoeste 19 Sudoeste 0 -- -- 26
2017-08-25 12:00:00 28.2 8 Sudoeste 17 Oeste 0 -- -- 27
2017-08-25 11:00:00 26.9 9 Sudoeste 13 Sudoeste 0 -- -- 29
2017-08-25 10:00:00 23.8 4 Este 14 Este 0 -- -- 38
2017-08-25 09:00:00 19.2 8 Este 14 Este 0 -- -- 50
2017-08-25 08:00:00 17.5 9 Este 15 Este 0 -- -- 54
2017-08-25 07:00:00 17.3 9 Este 17 Este 0 -- -- 55
2017-08-25 06:00:00 17.6 8 Este 16 Este 0 -- -- 56
2017-08-25 05:00:00 17.2 9 Este 14 Este 0 -- -- 59
2017-08-25 04:00:00 17.4 7 Este 11 Nordeste 0 -- -- 60
2017-08-25 03:00:00 18.9 6 Este 12 Este 0 -- -- 54
2017-08-25 02:00:00 19.8 5 Este 10 Este 0 -- -- 51
2017-08-25 01:00:00 20.2 6 Este 12 Este 0 -- -- 51
2017-08-25 00:00:00 21.2 5 Este 10 Este 0 -- -- 47
2017-08-24 23:00:00 22.8 5 Este 7 Este 0 -- -- 42
2017-08-24 22:00:00 24.4 2 Nordeste 9 Sudoeste 0 -- -- 39
2017-08-24 21:00:00 25.3 6 Oeste 17 Sudoeste 0 -- -- 38
2017-08-24 20:00:00 28 10 Sudoeste 25 Sudoeste 0 -- -- 32
2017-08-24 19:00:00 30.3 16 Sudoeste 30 Sudoeste 0 -- -- 26
2017-08-24 18:00:00 31.5 16 Sudoeste 36 Sudoeste 0 -- -- 27
2017-08-24 17:00:00 32.2 18 Sudoeste 33 Sudoeste 0 -- -- 27
2017-08-24 16:00:00 32.4 22 Oeste 37 Sudoeste 0 -- -- 29
2017-08-24 15:00:00 32.1 22 Sudoeste 35 Sudoeste 0 -- -- 29
2017-08-24 14:00:00 31.5 17 Sudoeste 35 Sudoeste 0 -- -- 34
2017-08-24 13:00:00 30 9 Sur 23 Oeste 0 -- -- 37
2017-08-24 12:00:00 28.3 10 Sudoeste 22 Sudoeste 0 -- -- 43
2017-08-24 11:00:00 26.7 8 Oeste 17 Oeste 0 -- -- 47
2017-08-24 10:00:00 24.2 9 Sudoeste 15 Este 0 -- -- 59
2017-08-24 09:00:00 21.3 9 Este 21 Este 0 -- -- 66
2017-08-24 08:00:00 19.5 9 Nordeste 18 Este 0 -- -- 72
2017-08-24 07:00:00 20 10 Este 38 Noroeste 0.4 -- -- 71
2017-08-24 06:00:00 21.3 18 Noroeste 38 Oeste 0.4 -- -- 59
2017-08-24 05:00:00 20.7 3 Noroeste 17 Nordeste 0 -- -- 52
2017-08-24 04:00:00 21.4 10 Sudoeste 17 Sudoeste 0 -- -- 48
2017-08-24 03:00:00 20.8 6 Este 10 Este 0 -- -- 56
2017-08-24 02:00:00 21.2 4 Este 11 Este 0 -- -- 55
2017-08-24 01:00:00 21 4 Este 8 Este 0 -- -- 53
2017-08-24 00:00:00 22.4 3 Sur 8 Este 0 -- -- 47
2017-08-23 23:00:00 23.2 4 Este 6 Este 0 -- -- 44
2017-08-23 22:00:00 24.7 2 Este 5 Este 0 -- -- 40
2017-08-23 21:00:00 26.3 0 Calma 9 Sudoeste 0 -- -- 36
2017-08-23 20:00:00 27.8 8 Sudoeste 24 Oeste 0 -- -- 34
2017-08-23 19:00:00 29.3 15 Sudoeste 28 Sudoeste 0 -- -- 34
2017-08-23 18:00:00 31.5 17 Sudoeste 35 Sudoeste 0 -- -- 34
2017-08-23 17:00:00 32.3 15 Sudoeste 30 Sudoeste 0 -- -- 26
2017-08-23 16:00:00 32.4 13 Sudoeste 24 Sudoeste 0 -- -- 29
2017-08-23 15:00:00 31.5 6 Noroeste 17 Oeste 0 -- -- 31
2017-08-23 14:00:00 29.9 6 Sur 17 Oeste 0 -- -- 28
2017-08-23 13:00:00 29.5 9 Oeste 19 Oeste 0 -- -- 33
2017-08-23 12:00:00 27.7 8 Oeste 17 Sudoeste 0 -- -- 39
2017-08-23 11:00:00 26.6 8 Sudoeste 18 Oeste 0 -- -- 43
2017-08-23 10:00:00 26.2 3 Sur 9 Este 0 -- -- 47
2017-08-23 09:00:00 21.8 6 Este 12 Nordeste 0 -- -- 65
2017-08-23 08:00:00 19.5 9 Nordeste 17 Nordeste 0 -- -- 71
2017-08-23 07:00:00 18.9 8 Nordeste 15 Este 0 -- -- 74
2017-08-23 06:00:00 18.9 5 Este 10 Este 0 -- -- 73
2017-08-23 05:00:00 19.8 8 Sudoeste 19 Este 0 -- -- 69
2017-08-23 04:00:00 20.5 9 Este 23 Sudeste 0 -- -- 67
2017-08-23 03:00:00 20.6 10 Este 19 Este 0 -- -- 67
2017-08-23 02:00:00 20.1 5 Este 8 Este 0 -- -- 69
2017-08-23 01:00:00 21 3 Este 8 Este 0 -- -- 66
2017-08-23 00:00:00 21.8 5 Sudoeste 8 Oeste 0 -- -- 61
2017-08-22 23:00:00 23 4 Sudoeste 7 Sudoeste 0 -- -- 63
2017-08-22 22:00:00 24.3 4 Sudoeste 10 Sudoeste 0 -- -- 55
2017-08-22 21:00:00 25.7 4 Sudoeste 19 Sudoeste 0 -- -- 50
2017-08-22 20:00:00 28.2 14 Sudoeste 22 Oeste 0 -- -- 42
2017-08-22 19:00:00 30.5 14 Sudoeste 28 Oeste 0 -- -- 42
2017-08-22 18:00:00 31.8 14 Sudoeste 31 Sudoeste 0 -- -- 38
2017-08-22 17:00:00 33 14 Sudoeste 30 Sudoeste 0 -- -- 35
2017-08-22 16:00:00 33.4 13 Sudoeste 33 Sur 0 -- -- 34
2017-08-22 15:00:00 33.9 14 Sudoeste 35 Sudoeste 0 -- -- 30
2017-08-22 14:00:00 32.9 19 Sudoeste 30 Sudoeste 0 -- -- 30
2017-08-22 13:00:00 31.5 15 Sudoeste 27 Sudoeste 0 -- -- 36
2017-08-22 12:00:00 29.2 6 Sudoeste 17 Sudoeste 0 -- -- 44
2017-08-22 11:00:00 26.9 4 Oeste 13 Sudoeste 0 -- -- 57
2017-08-22 10:00:00 24.6 4 Oeste 7 Sudoeste 0 -- -- 64
2017-08-22 09:00:00 20.7 4 Este 13 Este 0 -- -- 73
2017-08-22 08:00:00 18.4 7 Este 14 Este 0 -- -- 82
2017-08-22 07:00:00 18.5 4 Nordeste 10 Este 0 -- -- 81
2017-08-22 06:00:00 18.9 4 Nordeste 8 Nordeste 0 -- -- 78
2017-08-22 05:00:00 19.4 5 Nordeste 12 Nordeste 0 -- -- 78
2017-08-22 04:00:00 19.8 6 Este 11 Este 0 -- -- 79
2017-08-22 03:00:00 20.5 7 Este 14 Nordeste 0 -- -- 77
2017-08-22 02:00:00 20.8 7 Nordeste 17 Este 0 -- -- 80
2017-08-22 01:00:00 20.8 5 Nordeste 10 Este 0 -- -- 83
2017-08-22 00:00:00 21.8 3 Sur 8 Sudoeste 0 -- -- 79